createdAt,value
2022-10-10T00:13:39.316Z,45.1
2022-10-10T00:43:41.311Z,45.1
2022-10-10T01:13:43.204Z,45.1
2022-10-10T01:46:45.731Z,46.2
2022-10-10T02:16:47.422Z,47.2
2022-10-10T02:47:49.451Z,45.6
2022-10-10T03:18:51.374Z,46.2
2022-10-10T03:48:53.112Z,44.5
2022-10-10T04:20:54.996Z,46.7
2022-10-10T04:50:56.984Z,45.1
2022-10-10T05:21:58.891Z,46.2
2022-10-10T05:53:00.703Z,46.2
2022-10-10T06:28:02.992Z,46.7
2022-10-10T06:58:04.972Z,47.2
2022-10-10T07:28:06.886Z,49.4
2022-10-10T08:00:08.997Z,49.4
2022-10-10T08:19:10.430Z,51
2022-10-10T08:49:12.069Z,52.1
2022-10-10T09:19:14.149Z,54.8
2022-10-10T09:52:15.985Z,55.3
2022-10-10T10:23:18.038Z,58
2022-10-10T10:57:20.218Z,58.5
2022-10-10T11:27:22.000Z,57.5
2022-10-10T11:58:24.111Z,56.9
2022-10-10T12:28:26.062Z,59.1
2022-10-10T13:03:28.267Z,65.5
2022-10-10T13:33:30.265Z,67.7
2022-10-10T14:03:32.048Z,63.4
2022-10-10T14:33:33.846Z,56.9
2022-10-10T15:03:35.659Z,59.1
2022-10-10T15:34:37.603Z,55.3
2022-10-10T16:04:39.601Z,52.1
2022-10-10T16:37:41.565Z,52.6
2022-10-10T17:07:43.485Z,47.8
2022-10-10T17:40:45.588Z,47.8
2022-10-10T18:11:47.444Z,47.2
2022-10-10T18:42:49.514Z,48.3
2022-10-10T19:16:51.555Z,47.8
2022-10-10T19:49:53.601Z,47.8
2022-10-10T20:20:55.634Z,48.9
2022-10-10T20:51:57.479Z,48.3
2022-10-10T21:21:59.485Z,48.3
2022-10-10T21:52:01.712Z,48.3
2022-10-10T22:27:03.566Z,51
2022-10-10T22:57:05.373Z,49.4
2022-10-10T23:29:07.459Z,49.4
2022-10-10T23:59:09.373Z,48.3
